createdAt,value
2018-02-17T00:00:37.952Z,0.00
2018-02-17T00:01:37.676Z,0.00
2018-02-17T00:02:37.862Z,0.00
2018-02-17T00:03:37.781Z,0.00
2018-02-17T00:04:37.758Z,0.00
2018-02-17T00:05:37.794Z,0.00
2018-02-17T00:06:38.110Z,0.00
2018-02-17T00:07:37.859Z,0.00
2018-02-17T00:08:37.927Z,0.00
2018-02-17T00:09:37.924Z,0.00
2018-02-17T00:10:37.953Z,0.00
2018-02-17T00:11:38.043Z,0.00
2018-02-17T00:12:38.005Z,0.00
2018-02-17T00:13:38.366Z,0.00
2018-02-17T00:14:38.109Z,0.00
2018-02-17T00:15:38.095Z,0.00
2018-02-17T00:16:38.142Z,0.00
2018-02-17T00:17:38.174Z,0.00
2018-02-17T00:18:38.214Z,0.00
2018-02-17T00:19:38.330Z,0.00
2018-02-17T00:20:38.594Z,0.00
2018-02-17T00:21:38.318Z,0.00
2018-02-17T00:22:38.322Z,0.00
2018-02-17T00:23:38.366Z,0.00
2018-02-17T00:24:38.421Z,0.00
2018-02-17T00:25:38.426Z,0.00
2018-02-17T00:26:38.504Z,0.00
2018-02-17T00:27:38.791Z,0.00
2018-02-17T00:28:38.505Z,0.00
2018-02-17T00:29:38.566Z,0.00
2018-02-17T00:30:38.585Z,0.00
2018-02-17T00:31:38.630Z,0.00
2018-02-17T00:32:38.633Z,0.00
2018-02-17T00:33:38.660Z,0.00
2018-02-17T00:34:39.108Z,0.00
2018-02-17T00:35:38.918Z,0.00
2018-02-17T00:36:38.854Z,0.00
2018-02-17T00:37:38.791Z,0.00
2018-02-17T00:38:38.834Z,0.00
2018-02-17T00:39:38.866Z,0.00
2018-02-17T00:40:38.906Z,0.00
2018-02-17T00:41:39.280Z,0.00
2018-02-17T00:42:38.968Z,0.00
2018-02-17T00:43:38.993Z,0.00
2018-02-17T00:44:39.027Z,0.00
2018-02-17T00:45:39.092Z,0.00
2018-02-17T00:46:39.095Z,0.00
2018-02-17T00:47:39.122Z,0.00
2018-02-17T00:48:39.434Z,0.00
2018-02-17T00:49:39.209Z,0.00
2018-02-17T00:50:39.270Z,0.00
2018-02-17T00:51:39.236Z,0.00
2018-02-17T00:52:39.325Z,0.00
2018-02-17T00:53:39.351Z,0.00
2018-02-17T00:54:39.361Z,0.00
2018-02-17T00:55:39.639Z,0.00
2018-02-17T00:56:39.456Z,0.00
2018-02-17T00:57:39.413Z,0.00
2018-02-17T00:58:39.474Z,0.00
2018-02-17T00:59:39.508Z,0.00
2018-02-17T01:00:39.520Z,0.00
2018-02-17T01:01:39.542Z,0.00
2018-02-17T01:02:39.822Z,0.00
2018-02-17T01:03:39.642Z,0.00
2018-02-17T01:04:39.762Z,0.00
2018-02-17T01:05:39.699Z,0.00
2018-02-17T01:06:39.949Z,0.00
2018-02-17T01:07:39.764Z,0.00
2018-02-17T01:08:39.764Z,0.00
2018-02-17T01:09:40.074Z,0.00
2018-02-17T01:10:39.842Z,0.00
2018-02-17T01:11:39.931Z,0.00
2018-02-17T01:12:39.883Z,0.00
2018-02-17T01:13:39.927Z,0.00
2018-02-17T01:14:39.974Z,0.00
2018-02-17T01:15:40.034Z,0.00
2018-02-17T01:16:40.330Z,0.00
2018-02-17T01:17:40.064Z,0.00
2018-02-17T01:18:40.073Z,0.00
2018-02-17T01:19:40.140Z,0.00
2018-02-17T01:20:40.150Z,0.00
2018-02-17T01:21:40.207Z,0.00
2018-02-17T01:22:40.238Z,0.00
2018-02-17T01:23:40.478Z,0.00
2018-02-17T01:24:40.277Z,0.00
2018-02-17T01:25:40.351Z,0.00
2018-02-17T01:26:40.328Z,0.00
2018-02-17T01:27:40.370Z,0.00
2018-02-17T01:28:40.417Z,0.00
2018-02-17T01:29:40.731Z,0.00
2018-02-17T01:30:40.505Z,0.00
2018-02-17T01:31:40.475Z,0.00
2018-02-17T01:32:40.528Z,0.00
2018-02-17T01:33:40.606Z,0.00
2018-02-17T01:34:40.606Z,0.00
2018-02-17T01:35:40.852Z,0.00
2018-02-17T01:36:40.628Z,0.00
2018-02-17T01:37:40.820Z,0.00
2018-02-17T01:38:40.700Z,0.00
2018-02-17T01:39:40.762Z,0.00
2018-02-17T01:40:40.775Z,0.00
2018-02-17T01:41:41.036Z,0.00
2018-02-17T01:42:40.838Z,0.00
2018-02-17T01:43:40.874Z,0.00
2018-02-17T01:44:40.898Z,0.00
2018-02-17T01:45:40.933Z,0.00
2018-02-17T01:46:40.961Z,0.00
2018-02-17T01:47:41.222Z,0.00
2018-02-17T01:48:41.169Z,0.00
2018-02-17T01:49:41.064Z,0.00
2018-02-17T01:50:41.083Z,0.00
2018-02-17T01:51:41.092Z,0.00
2018-02-17T01:52:41.127Z,0.00
2018-02-17T01:53:41.471Z,0.00
2018-02-17T01:54:41.270Z,0.00
2018-02-17T01:55:41.222Z,0.00
2018-02-17T01:56:41.266Z,0.00
2018-02-17T01:57:41.294Z,0.00
2018-02-17T01:58:41.346Z,0.00
2018-02-17T01:59:41.590Z,0.00
2018-02-17T02:00:41.400Z,0.00
2018-02-17T02:01:41.417Z,0.00
2018-02-17T02:02:41.453Z,0.00
2018-02-17T02:03:41.530Z,0.00
2018-02-17T02:04:41.505Z,0.00
2018-02-17T02:05:41.791Z,0.00
2018-02-17T02:06:41.554Z,0.00
2018-02-17T02:07:41.601Z,0.00
2018-02-17T02:08:41.841Z,0.00
2018-02-17T02:09:41.757Z,0.00
2018-02-17T02:10:41.710Z,0.00
2018-02-17T02:11:42.017Z,0.00
2018-02-17T02:12:41.771Z,0.00
2018-02-17T02:13:41.818Z,0.00
2018-02-17T02:14:41.814Z,0.00
2018-02-17T02:15:41.851Z,0.00
2018-02-17T02:16:41.866Z,0.00
2018-02-17T02:17:42.199Z,0.00
2018-02-17T02:18:41.995Z,0.00
2018-02-17T02:19:41.963Z,0.00
2018-02-17T02:20:42.237Z,0.00
2018-02-17T02:21:42.012Z,0.00
2018-02-17T02:22:42.097Z,0.00
2018-02-17T02:23:42.381Z,0.00
2018-02-17T02:24:42.152Z,0.00
2018-02-17T02:25:42.155Z,0.00
2018-02-17T02:26:42.189Z,0.00
2018-02-17T02:27:42.231Z,0.00
2018-02-17T02:28:42.278Z,0.00
2018-02-17T02:29:42.581Z,0.00
2018-02-17T02:30:42.290Z,0.00
2018-02-17T02:31:42.332Z,0.00
2018-02-17T02:32:42.360Z,0.00
2018-02-17T02:33:42.396Z,0.00
2018-02-17T02:34:42.464Z,0.00
2018-02-17T02:35:42.726Z,0.00
2018-02-17T02:36:42.498Z,0.00
2018-02-17T02:37:42.525Z,0.00
2018-02-17T02:38:42.551Z,0.00
2018-02-17T02:39:42.665Z,0.00
2018-02-17T02:40:42.634Z,0.00
2018-02-17T02:41:42.884Z,0.00
2018-02-17T02:42:42.674Z,0.00
2018-02-17T02:43:42.705Z,0.00
2018-02-17T02:44:42.737Z,0.00
2018-02-17T02:45:42.909Z,0.00
2018-02-17T02:46:42.800Z,0.00
2018-02-17T02:47:42.829Z,0.00
2018-02-17T02:48:43.160Z,0.00
2018-02-17T02:49:42.900Z,0.00
2018-02-17T02:50:42.921Z,0.00
2018-02-17T02:51:42.935Z,0.00
2018-02-17T02:52:42.963Z,0.00
2018-02-17T02:53:42.993Z,0.00
2018-02-17T02:54:43.034Z,0.00
2018-02-17T02:55:43.424Z,0.00
2018-02-17T02:56:43.091Z,0.00
2018-02-17T02:57:43.157Z,0.00
2018-02-17T02:58:43.149Z,0.00
2018-02-17T02:59:43.180Z,0.00
2018-02-17T03:00:43.216Z,0.00
2018-02-17T03:01:43.255Z,0.00
2018-02-17T03:02:43.535Z,0.00
2018-02-17T03:03:43.316Z,0.00
2018-02-17T03:04:43.353Z,0.00
2018-02-17T03:05:43.365Z,0.00
2018-02-17T03:06:43.406Z,0.00
2018-02-17T03:07:43.530Z,0.00
2018-02-17T03:08:43.564Z,0.00
2018-02-17T03:09:43.787Z,0.00
2018-02-17T03:10:43.534Z,0.00
2018-02-17T03:11:43.565Z,0.00
2018-02-17T03:12:43.587Z,0.00
2018-02-17T03:13:43.601Z,0.00
2018-02-17T03:14:43.636Z,0.00
2018-02-17T03:15:43.686Z,0.00
2018-02-17T03:16:44.066Z,0.00
2018-02-17T03:17:43.730Z,0.00
2018-02-17T03:18:43.775Z,0.00
2018-02-17T03:19:43.804Z,0.00
2018-02-17T03:20:43.817Z,0.00
2018-02-17T03:21:43.900Z,0.00
2018-02-17T03:22:43.879Z,0.00
2018-02-17T03:23:44.161Z,0.00
2018-02-17T03:24:43.954Z,0.00
2018-02-17T03:25:43.968Z,0.00
2018-02-17T03:26:44.025Z,0.00
2018-02-17T03:27:44.099Z,0.00
2018-02-17T03:28:44.085Z,0.00
2018-02-17T03:29:44.091Z,0.00
2018-02-17T03:30:44.391Z,0.00
2018-02-17T03:31:44.153Z,0.00
2018-02-17T03:32:44.182Z,0.00
2018-02-17T03:33:44.284Z,0.00
2018-02-17T03:34:44.300Z,0.00
2018-02-17T03:35:44.296Z,0.00
2018-02-17T03:36:44.321Z,0.00
2018-02-17T03:37:44.583Z,0.00
2018-02-17T03:38:44.401Z,0.00
2018-02-17T03:39:44.495Z,0.00
2018-02-17T03:40:44.438Z,0.00
2018-02-17T03:41:44.472Z,0.00
2018-02-17T03:42:44.489Z,0.00
2018-02-17T03:43:44.547Z,0.00
2018-02-17T03:44:44.969Z,0.00
2018-02-17T03:45:44.604Z,0.00
2018-02-17T03:46:44.635Z,0.00
2018-02-17T03:47:44.645Z,0.00
2018-02-17T03:48:44.719Z,0.00
2018-02-17T03:49:44.715Z,0.00
2018-02-17T03:50:44.730Z,0.00
2018-02-17T03:51:45.026Z,0.00
2018-02-17T03:52:44.817Z,0.00
2018-02-17T03:53:44.823Z,0.00
2018-02-17T03:54:44.892Z,0.00
2018-02-17T03:55:44.878Z,0.00
2018-02-17T03:56:44.978Z,0.00
2018-02-17T03:57:44.987Z,0.00
2018-02-17T03:58:45.327Z,0.00
2018-02-17T03:59:45.012Z,0.00
2018-02-17T04:00:45.055Z,0.00
2018-02-17T04:01:45.146Z,0.00
2018-02-17T04:02:45.107Z,0.00
2018-02-17T04:03:45.139Z,0.00
2018-02-17T04:04:45.410Z,0.00
2018-02-17T04:05:45.182Z,0.00
2018-02-17T04:06:45.221Z,0.00
2018-02-17T04:07:45.295Z,0.00
2018-02-17T04:08:45.306Z,0.00
2018-02-17T04:09:45.327Z,0.00
2018-02-17T04:10:45.586Z,0.00
2018-02-17T04:11:45.384Z,0.00
2018-02-17T04:12:45.414Z,0.00
2018-02-17T04:13:45.431Z,0.00
2018-02-17T04:14:45.466Z,0.00
2018-02-17T04:15:45.504Z,0.00
2018-02-17T04:16:45.810Z,0.00
2018-02-17T04:17:45.565Z,0.00
2018-02-17T04:18:45.618Z,0.00
2018-02-17T04:19:45.626Z,0.00
2018-02-17T04:20:45.654Z,0.00
2018-02-17T04:21:45.697Z,0.00
2018-02-17T04:22:46.015Z,0.00
2018-02-17T04:23:45.776Z,0.00
2018-02-17T04:24:45.762Z,0.00
2018-02-17T04:25:45.807Z,0.00
2018-02-17T04:26:45.815Z,0.00
2018-02-17T04:27:45.856Z,0.00
2018-02-17T04:28:46.140Z,0.00
2018-02-17T04:29:45.931Z,0.00
2018-02-17T04:30:46.089Z,0.00
2018-02-17T04:31:45.983Z,0.00
2018-02-17T04:32:46.024Z,0.00
2018-02-17T04:33:46.050Z,0.00
2018-02-17T04:34:46.391Z,0.00
2018-02-17T04:35:46.091Z,0.00
2018-02-17T04:36:46.191Z,0.00
2018-02-17T04:37:46.170Z,0.00
2018-02-17T04:38:46.196Z,0.00
2018-02-17T04:39:46.259Z,0.00
2018-02-17T04:40:46.507Z,0.00
2018-02-17T04:41:46.270Z,0.00
2018-02-17T04:42:46.379Z,0.00
2018-02-17T04:43:46.341Z,0.00
2018-02-17T04:44:46.381Z,0.00
2018-02-17T04:45:46.410Z,0.00
2018-02-17T04:46:46.691Z,0.00
2018-02-17T04:47:46.470Z,0.00
2018-02-17T04:48:46.505Z,0.00
2018-02-17T04:49:46.516Z,0.00
2018-02-17T04:50:46.560Z,0.00
2018-02-17T04:51:46.573Z,0.00
2018-02-17T04:52:46.911Z,0.00
2018-02-17T04:53:46.637Z,0.00
2018-02-17T04:54:46.682Z,0.00
2018-02-17T04:55:46.795Z,0.00
2018-02-17T04:56:46.805Z,0.00
2018-02-17T04:57:46.826Z,0.00
2018-02-17T04:58:47.084Z,0.00
2018-02-17T04:59:46.846Z,0.00
2018-02-17T05:00:46.866Z,0.00
2018-02-17T05:01:46.891Z,0.00
2018-02-17T05:02:46.928Z,0.00
2018-02-17T05:03:46.945Z,0.00
2018-02-17T05:04:47.282Z,0.00
2018-02-17T05:05:47.061Z,0.00
2018-02-17T05:06:47.045Z,0.00
2018-02-17T05:07:47.144Z,0.00
2018-02-17T05:08:47.083Z,0.00
2018-02-17T05:09:47.113Z,0.00
2018-02-17T05:10:47.412Z,0.00
2018-02-17T05:11:47.174Z,0.00
2018-02-17T05:12:47.228Z,0.00
2018-02-17T05:13:47.256Z,0.00
2018-02-17T05:14:47.266Z,0.00
2018-02-17T05:15:47.349Z,0.00
2018-02-17T05:16:47.655Z,0.00
2018-02-17T05:17:47.372Z,0.00
2018-02-17T05:18:47.388Z,0.00
2018-02-17T05:19:47.467Z,0.00
2018-02-17T05:20:47.462Z,0.00
2018-02-17T05:21:47.605Z,0.00
2018-02-17T05:22:47.541Z,0.00
2018-02-17T05:23:47.822Z,0.00
2018-02-17T05:24:47.575Z,0.00
2018-02-17T05:25:47.600Z,0.00
2018-02-17T05:26:47.629Z,0.00
2018-02-17T05:27:47.761Z,0.00
2018-02-17T05:28:47.708Z,0.00
2018-02-17T05:29:47.794Z,0.00
2018-02-17T05:30:48.064Z,0.00
2018-02-17T05:31:47.801Z,0.00
2018-02-17T05:32:47.807Z,0.00
2018-02-17T05:33:47.922Z,0.00
2018-02-17T05:34:47.899Z,0.00
2018-02-17T05:35:47.904Z,0.00
2018-02-17T05:36:47.945Z,0.00
2018-02-17T05:37:48.389Z,0.00
2018-02-17T05:38:47.994Z,0.00
2018-02-17T05:39:48.016Z,0.00
2018-02-17T05:40:48.078Z,0.00
2018-02-17T05:41:48.078Z,0.00
2018-02-17T05:42:48.130Z,0.00
2018-02-17T05:43:48.161Z,0.00
2018-02-17T05:44:48.507Z,0.00
2018-02-17T05:45:48.225Z,0.00
2018-02-17T05:46:48.244Z,0.00
2018-02-17T05:47:48.277Z,0.00
2018-02-17T05:48:48.307Z,0.00
2018-02-17T05:49:48.353Z,0.00
2018-02-17T05:50:48.367Z,0.00
2018-02-17T05:51:48.633Z,0.00
2018-02-17T05:52:48.469Z,0.00
2018-02-17T05:53:48.691Z,0.00
2018-02-17T05:54:48.489Z,0.00
2018-02-17T05:55:48.519Z,0.00
2018-02-17T05:56:48.531Z,0.00
2018-02-17T05:57:48.570Z,0.00
2018-02-17T05:58:48.908Z,0.00
2018-02-17T05:59:48.726Z,0.00
2018-02-17T06:00:48.669Z,0.00
2018-02-17T06:01:48.679Z,0.00
2018-02-17T06:02:48.726Z,0.00
2018-02-17T06:03:48.834Z,0.00
2018-02-17T06:04:48.788Z,0.00
2018-02-17T06:05:49.067Z,0.00
2018-02-17T06:06:48.833Z,0.00
2018-02-17T06:07:48.861Z,0.00
2018-02-17T06:08:48.913Z,0.00
2018-02-17T06:09:48.931Z,0.00
2018-02-17T06:10:48.978Z,0.00
2018-02-17T06:11:49.240Z,0.00
2018-02-17T06:12:49.282Z,0.00
2018-02-17T06:13:49.211Z,0.00
2018-02-17T06:14:49.090Z,0.00
2018-02-17T06:15:49.122Z,0.00
2018-02-17T06:16:49.166Z,0.00
2018-02-17T06:17:49.202Z,0.00
2018-02-17T06:18:49.213Z,0.00
2018-02-17T06:19:49.726Z,0.00
2018-02-17T06:20:49.268Z,0.00
2018-02-17T06:21:49.290Z,0.00
2018-02-17T06:22:49.314Z,0.00
2018-02-17T06:23:49.395Z,0.00
2018-02-17T06:24:49.375Z,0.00
2018-02-17T06:25:49.496Z,0.00
2018-02-17T06:26:49.688Z,0.00
2018-02-17T06:27:49.503Z,0.00
2018-02-17T06:28:49.537Z,0.00
2018-02-17T06:29:49.674Z,0.00
2018-02-17T06:30:49.580Z,0.00
2018-02-17T06:31:49.593Z,0.00
2018-02-17T06:32:49.637Z,0.00
2018-02-17T06:33:49.915Z,0.00
2018-02-17T06:34:49.723Z,0.00
2018-02-17T06:35:49.773Z,0.00
2018-02-17T06:36:49.776Z,0.00
2018-02-17T06:37:49.799Z,0.00
2018-02-17T06:38:49.814Z,0.00
2018-02-17T06:39:50.161Z,0.00
2018-02-17T06:40:49.894Z,0.00
2018-02-17T06:41:49.927Z,0.00
2018-02-17T06:42:49.965Z,0.00
2018-02-17T06:43:49.951Z,0.00
2018-02-17T06:44:50.019Z,0.00
2018-02-17T06:45:50.283Z,0.00
2018-02-17T06:46:50.042Z,0.00
2018-02-17T06:47:50.077Z,0.00
2018-02-17T06:48:50.153Z,0.00
2018-02-17T06:49:50.158Z,0.00
2018-02-17T06:50:50.227Z,0.00
2018-02-17T06:51:50.459Z,0.00
2018-02-17T06:52:50.247Z,0.00
2018-02-17T06:53:50.251Z,0.00
2018-02-17T06:54:50.379Z,0.00
2018-02-17T06:55:50.335Z,0.00
2018-02-17T06:56:50.414Z,0.00
2018-02-17T06:57:50.664Z,0.00
2018-02-17T06:58:50.447Z,0.00
2018-02-17T06:59:50.441Z,0.00
2018-02-17T07:00:50.480Z,0.00
2018-02-17T07:01:50.504Z,5.63
2018-02-17T07:02:50.540Z,5.63
2018-02-17T07:03:50.806Z,5.63
2018-02-17T07:04:50.608Z,5.63
2018-02-17T07:05:50.767Z,5.63
2018-02-17T07:06:50.666Z,5.63
2018-02-17T07:07:50.695Z,5.63
2018-02-17T07:08:50.703Z,5.63
2018-02-17T07:09:51.004Z,5.63
2018-02-17T07:10:50.781Z,5.63
2018-02-17T07:11:50.867Z,5.63
2018-02-17T07:12:50.829Z,5.63
2018-02-17T07:13:50.877Z,5.63
2018-02-17T07:14:50.887Z,5.63
2018-02-17T07:15:51.230Z,5.63
2018-02-17T07:16:50.947Z,5.63
2018-02-17T07:17:50.976Z,5.63
2018-02-17T07:18:51.007Z,5.63
2018-02-17T07:19:51.064Z,5.63
2018-02-17T07:20:51.073Z,5.63
2018-02-17T07:21:51.425Z,5.63
2018-02-17T07:22:51.146Z,5.63
2018-02-17T07:23:51.327Z,5.63
2018-02-17T07:24:51.246Z,11.25
2018-02-17T07:25:51.261Z,11.25
2018-02-17T07:26:51.290Z,11.25
2018-02-17T07:27:51.538Z,11.25
2018-02-17T07:28:51.454Z,11.25
2018-02-17T07:29:51.424Z,11.25
2018-02-17T07:30:51.413Z,11.25
2018-02-17T07:31:51.432Z,11.25
2018-02-17T07:32:51.459Z,11.25
2018-02-17T07:33:51.769Z,11.25
2018-02-17T07:34:51.510Z,11.25
2018-02-17T07:35:51.540Z,11.25
2018-02-17T07:36:51.552Z,11.25
2018-02-17T07:37:51.582Z,11.25
2018-02-17T07:38:51.637Z,11.25
2018-02-17T07:39:51.993Z,11.25
2018-02-17T07:40:51.691Z,11.25
2018-02-17T07:41:51.833Z,11.25
2018-02-17T07:42:51.741Z,11.25
2018-02-17T07:43:51.815Z,11.25
2018-02-17T07:44:51.833Z,11.25
2018-02-17T07:45:52.133Z,11.25
2018-02-17T07:46:51.857Z,11.25
2018-02-17T07:47:51.904Z,11.25
2018-02-17T07:48:51.943Z,11.25
2018-02-17T07:49:51.947Z,11.25
2018-02-17T07:50:52.038Z,16.88
2018-02-17T07:51:52.006Z,16.88
2018-02-17T07:52:52.309Z,16.88
2018-02-17T07:53:52.084Z,16.88
2018-02-17T07:54:52.137Z,16.88
2018-02-17T07:55:52.129Z,16.88
2018-02-17T07:56:52.226Z,16.88
2018-02-17T07:57:52.214Z,16.88
2018-02-17T07:58:52.223Z,16.88
2018-02-17T07:59:52.555Z,22.50
2018-02-17T08:00:53.597Z,22.50
2018-02-17T08:01:52.391Z,22.50
2018-02-17T08:02:52.375Z,22.50
2018-02-17T08:03:52.381Z,22.50
2018-02-17T08:04:52.420Z,22.50
2018-02-17T08:05:52.557Z,22.50
2018-02-17T08:06:52.766Z,22.50
2018-02-17T08:07:52.501Z,22.50
2018-02-17T08:08:52.545Z,22.50
2018-02-17T08:09:52.558Z,22.50
2018-02-17T08:10:52.604Z,22.50
2018-02-17T08:11:52.651Z,22.50
2018-02-17T08:12:52.717Z,28.13
2018-02-17T08:13:53.003Z,28.13
2018-02-17T08:14:52.712Z,28.13
2018-02-17T08:15:52.888Z,28.13
2018-02-17T08:16:52.820Z,28.13
2018-02-17T08:17:52.820Z,28.13
2018-02-17T08:18:53.021Z,28.13
2018-02-17T08:19:52.888Z,28.13
2018-02-17T08:20:53.158Z,28.13
2018-02-17T08:21:52.948Z,28.13
2018-02-17T08:22:52.949Z,28.13
2018-02-17T08:23:53.014Z,28.13
2018-02-17T08:24:56.942Z,28.13
2018-02-17T08:25:54.239Z,33.75
2018-02-17T08:26:54.536Z,33.75
2018-02-17T08:27:58.365Z,33.75
2018-02-17T08:28:53.567Z,33.75
2018-02-17T08:29:53.553Z,39.38
2018-02-17T08:30:53.242Z,39.38
2018-02-17T08:31:54.274Z,39.38
2018-02-17T08:32:53.380Z,39.38
2018-02-17T08:33:53.308Z,39.38
2018-02-17T08:34:53.801Z,39.38
2018-02-17T08:35:56.287Z,45.00
2018-02-17T08:36:53.415Z,45.00
2018-02-17T08:37:53.440Z,45.00
2018-02-17T08:38:53.462Z,45.00
2018-02-17T08:39:53.864Z,45.00
2018-02-17T08:40:55.918Z,45.00
2018-02-17T08:41:54.728Z,45.00
2018-02-17T08:42:55.106Z,50.63
2018-02-17T08:43:53.617Z,50.63
2018-02-17T08:44:53.658Z,50.63
2018-02-17T08:45:53.682Z,50.63
2018-02-17T08:46:53.685Z,50.63
2018-02-17T08:47:53.729Z,50.63
2018-02-17T08:48:53.995Z,50.63
2018-02-17T08:49:53.774Z,50.63
2018-02-17T08:50:53.821Z,50.63
2018-02-17T08:51:53.859Z,50.63
2018-02-17T08:52:53.869Z,56.25
2018-02-17T08:53:53.924Z,56.25
2018-02-17T08:54:53.944Z,56.25
2018-02-17T08:55:54.474Z,56.25
2018-02-17T08:56:53.992Z,56.25
2018-02-17T08:57:54.028Z,61.88
2018-02-17T08:58:54.056Z,61.88
2018-02-17T08:59:54.099Z,61.88
2018-02-17T09:00:54.139Z,61.88
2018-02-17T09:01:54.190Z,61.88
2018-02-17T09:02:54.471Z,61.88
2018-02-17T09:03:54.226Z,67.50
2018-02-17T09:04:54.239Z,67.50
2018-02-17T09:05:54.280Z,67.50
2018-02-17T09:06:54.320Z,67.50
2018-02-17T09:07:54.330Z,67.50
2018-02-17T09:08:54.656Z,67.50
2018-02-17T09:09:54.391Z,67.50
2018-02-17T09:10:54.534Z,73.13
2018-02-17T09:11:54.466Z,73.13
2018-02-17T09:12:54.476Z,73.13
2018-02-17T09:13:54.524Z,67.50
2018-02-17T09:14:54.788Z,67.50
2018-02-17T09:15:54.626Z,67.50
2018-02-17T09:16:54.604Z,67.50
2018-02-17T09:17:54.650Z,67.50
2018-02-17T09:18:54.686Z,73.13
2018-02-17T09:19:54.718Z,73.13
2018-02-17T09:20:55.023Z,73.13
2018-02-17T09:21:54.898Z,73.13
2018-02-17T09:22:54.801Z,73.13
2018-02-17T09:23:54.826Z,73.13
2018-02-17T09:24:54.860Z,73.13
2018-02-17T09:25:54.896Z,73.13
2018-02-17T09:26:55.180Z,73.13
2018-02-17T09:27:55.043Z,73.13
2018-02-17T09:28:54.973Z,73.13
2018-02-17T09:29:55.001Z,73.13
2018-02-17T09:30:55.051Z,73.13
2018-02-17T09:31:55.078Z,73.13
2018-02-17T09:32:55.373Z,73.13
2018-02-17T09:33:55.509Z,73.13
2018-02-17T09:34:55.157Z,73.13
2018-02-17T09:35:55.202Z,73.13
2018-02-17T09:36:55.229Z,73.13
2018-02-17T09:37:55.274Z,73.13
2018-02-17T09:38:55.597Z,73.13
2018-02-17T09:39:55.372Z,73.13
2018-02-17T09:40:55.368Z,78.75
2018-02-17T09:41:55.398Z,78.75
2018-02-17T09:42:55.403Z,78.75
2018-02-17T09:43:55.445Z,78.75
2018-02-17T09:44:55.731Z,78.75
2018-02-17T09:45:55.516Z,84.38
2018-02-17T09:46:55.543Z,84.38
2018-02-17T09:47:55.569Z,84.38
2018-02-17T09:48:55.620Z,84.38
2018-02-17T09:49:55.615Z,84.38
2018-02-17T09:50:55.965Z,84.38
2018-02-17T09:51:55.693Z,84.38
2018-02-17T09:52:55.734Z,84.38
2018-02-17T09:53:55.756Z,84.38
2018-02-17T09:54:55.775Z,84.38
2018-02-17T09:55:55.821Z,84.38
2018-02-17T09:56:56.105Z,90.00
2018-02-17T09:57:55.887Z,90.00
2018-02-17T09:58:55.920Z,90.00
2018-02-17T09:59:55.931Z,95.63
2018-02-17T10:00:55.970Z,95.63
2018-02-17T10:01:55.989Z,95.63
2018-02-17T10:02:56.323Z,101.25
2018-02-17T10:03:56.091Z,101.25
2018-02-17T10:04:56.078Z,101.25
2018-02-17T10:05:56.107Z,106.88
2018-02-17T10:06:56.152Z,106.88
2018-02-17T10:07:56.192Z,106.88
2018-02-17T10:08:56.469Z,106.88
2018-02-17T10:09:56.231Z,106.88
2018-02-17T10:10:56.342Z,106.88
2018-02-17T10:11:56.313Z,106.88
2018-02-17T10:12:56.332Z,106.88
2018-02-17T10:13:56.355Z,106.88
2018-02-17T10:14:56.713Z,112.50
2018-02-17T10:15:56.435Z,112.50
2018-02-17T10:16:56.479Z,118.13
2018-02-17T10:17:56.573Z,118.13
2018-02-17T10:18:56.537Z,112.50
2018-02-17T10:19:56.557Z,112.50
2018-02-17T10:20:56.898Z,112.50
2018-02-17T10:21:56.620Z,112.50
2018-02-17T10:22:56.651Z,112.50
2018-02-17T10:23:56.666Z,112.50
2018-02-17T10:24:56.718Z,112.50
2018-02-17T10:25:56.746Z,112.50
2018-02-17T10:26:56.785Z,106.88
2018-02-17T10:27:57.116Z,112.50
2018-02-17T10:28:56.854Z,112.50
2018-02-17T10:29:56.882Z,118.13
2018-02-17T10:30:56.900Z,118.13
2018-02-17T10:31:56.940Z,118.13
2018-02-17T10:32:56.953Z,118.13
2018-02-17T10:33:56.978Z,118.13
2018-02-17T10:34:57.279Z,112.50
2018-02-17T10:35:57.065Z,112.50
2018-02-17T10:36:57.078Z,112.50
2018-02-17T10:37:57.133Z,112.50
2018-02-17T10:38:57.144Z,112.50
2018-02-17T10:39:57.189Z,106.88
2018-02-17T10:40:57.199Z,106.88
2018-02-17T10:41:57.610Z,112.50
2018-02-17T10:42:57.268Z,112.50
2018-02-17T10:43:57.320Z,112.50
2018-02-17T10:44:57.325Z,112.50
2018-02-17T10:45:57.363Z,112.50
2018-02-17T10:46:57.387Z,118.13
2018-02-17T10:47:57.428Z,118.13
2018-02-17T10:48:57.753Z,123.75
2018-02-17T10:49:57.496Z,129.38
2018-02-17T10:50:57.516Z,123.75
2018-02-17T10:51:57.547Z,123.75
2018-02-17T10:52:57.590Z,123.75
2018-02-17T10:53:57.651Z,118.13
2018-02-17T10:54:57.635Z,112.50
2018-02-17T10:55:57.993Z,112.50
2018-02-17T10:56:57.705Z,106.88
2018-02-17T10:57:57.749Z,106.88
2018-02-17T10:58:57.778Z,106.88
2018-02-17T10:59:57.823Z,101.25
2018-02-17T11:00:57.846Z,106.88
2018-02-17T11:01:57.875Z,106.88
2018-02-17T11:02:58.159Z,106.88
2018-02-17T11:03:57.920Z,106.88
2018-02-17T11:04:57.968Z,101.25
2018-02-17T11:05:58.032Z,101.25
2018-02-17T11:06:58.013Z,101.25
2018-02-17T11:07:58.044Z,101.25
2018-02-17T11:08:58.121Z,101.25
2018-02-17T11:09:58.377Z,101.25
2018-02-17T11:10:58.156Z,106.88
2018-02-17T11:11:58.186Z,101.25
2018-02-17T11:12:58.201Z,106.88
2018-02-17T11:13:58.232Z,106.88
2018-02-17T11:14:58.272Z,106.88
2018-02-17T11:15:58.294Z,106.88
2018-02-17T11:16:58.580Z,106.88
2018-02-17T11:17:58.388Z,106.88
2018-02-17T11:18:58.416Z,112.50
2018-02-17T11:19:58.440Z,112.50
2018-02-17T11:20:58.461Z,112.50
2018-02-17T11:21:58.497Z,112.50
2018-02-17T11:22:58.566Z,112.50
2018-02-17T11:23:58.896Z,112.50
2018-02-17T11:24:58.612Z,112.50
2018-02-17T11:25:58.698Z,106.88
2018-02-17T11:26:58.675Z,106.88
2018-02-17T11:27:58.741Z,106.88
2018-02-17T11:28:58.703Z,101.25
2018-02-17T11:29:58.792Z,101.25
2018-02-17T11:30:59.118Z,95.63
2018-02-17T11:31:58.799Z,95.63
2018-02-17T11:32:58.856Z,90.00
2018-02-17T11:33:58.930Z,90.00
2018-02-17T11:34:58.936Z,90.00
2018-02-17T11:35:58.945Z,90.00
2018-02-17T11:36:58.971Z,90.00
2018-02-17T11:37:59.309Z,90.00
2018-02-17T11:38:59.017Z,90.00
2018-02-17T11:39:59.074Z,95.63
2018-02-17T11:40:59.117Z,95.63
2018-02-17T11:41:59.133Z,95.63
2018-02-17T11:42:59.283Z,95.63
2018-02-17T11:43:59.441Z,90.00
2018-02-17T11:44:59.234Z,90.00
2018-02-17T11:45:59.254Z,90.00
2018-02-17T11:46:59.285Z,90.00
2018-02-17T11:47:59.304Z,90.00
2018-02-17T11:48:59.637Z,90.00
2018-02-17T11:49:59.701Z,90.00
2018-02-17T11:50:59.473Z,90.00
2018-02-17T11:51:59.444Z,90.00
2018-02-17T11:52:59.476Z,95.63
2018-02-17T11:53:59.514Z,95.63
2018-02-17T11:54:59.571Z,95.63
2018-02-17T11:55:59.851Z,101.25
2018-02-17T11:56:59.601Z,101.25
2018-02-17T11:57:59.655Z,101.25
2018-02-17T11:58:59.654Z,101.25
2018-02-17T11:59:59.693Z,95.63
2018-02-17T12:00:59.974Z,95.63
2018-02-17T12:02:00.079Z,95.63
2018-02-17T12:02:59.787Z,101.25
2018-02-17T12:03:59.802Z,101.25
2018-02-17T12:04:59.852Z,101.25
2018-02-17T12:05:59.894Z,106.88
2018-02-17T12:06:59.902Z,112.50
2018-02-17T12:08:00.234Z,118.13
2018-02-17T12:08:59.966Z,123.75
2018-02-17T12:10:00.005Z,123.75
2018-02-17T12:11:00.083Z,129.38
2018-02-17T12:12:00.104Z,135.00
2018-02-17T12:13:00.090Z,140.63
2018-02-17T12:14:00.389Z,146.25
2018-02-17T12:15:00.186Z,151.88
2018-02-17T12:16:00.229Z,151.88
2018-02-17T12:17:00.235Z,146.25
2018-02-17T12:18:00.242Z,146.25
2018-02-17T12:19:00.305Z,140.63
2018-02-17T12:20:00.635Z,135.00
2018-02-17T12:21:00.402Z,129.38
2018-02-17T12:22:00.415Z,129.38
2018-02-17T12:23:00.412Z,129.38
2018-02-17T12:24:00.434Z,135.00
2018-02-17T12:25:00.501Z,135.00
2018-02-17T12:26:00.857Z,135.00
2018-02-17T12:27:00.557Z,140.63
2018-02-17T12:28:00.574Z,140.63
2018-02-17T12:29:00.612Z,140.63
2018-02-17T12:30:00.639Z,140.63
2018-02-17T12:31:00.682Z,140.63
2018-02-17T12:32:01.018Z,140.63
2018-02-17T12:33:00.753Z,140.63
2018-02-17T12:34:00.748Z,140.63
2018-02-17T12:37:00.864Z,135.00
2018-02-17T12:38:00.886Z,135.00
2018-02-17T12:39:01.285Z,135.00
2018-02-17T12:40:00.968Z,135.00
2018-02-17T12:41:00.985Z,135.00
2018-02-17T12:42:01.014Z,135.00
2018-02-17T12:43:01.057Z,135.00
2018-02-17T12:44:01.089Z,135.00
2018-02-17T12:45:01.450Z,135.00
2018-02-17T12:46:01.150Z,135.00
2018-02-17T12:47:01.182Z,135.00
2018-02-17T12:48:01.295Z,135.00
2018-02-17T12:49:01.250Z,135.00
2018-02-17T12:50:01.259Z,135.00
2018-02-17T12:51:01.555Z,135.00
2018-02-17T12:52:01.322Z,135.00
2018-02-17T12:53:01.371Z,135.00
2018-02-17T12:54:01.384Z,135.00
2018-02-17T12:55:01.441Z,129.38
2018-02-17T12:56:01.519Z,135.00
2018-02-17T12:57:01.808Z,129.38
2018-02-17T12:58:01.529Z,129.38
2018-02-17T12:59:01.543Z,129.38
2018-02-17T13:00:01.596Z,129.38
2018-02-17T13:01:01.628Z,129.38
2018-02-17T13:02:01.679Z,129.38
2018-02-17T13:03:01.686Z,129.38
2018-02-17T13:04:02.029Z,129.38
2018-02-17T13:05:01.743Z,129.38